University Park, Pennsylvania
Current Conditions -  °F | °C
As of 5:53 PM on Friday 28 Nov 2014 (Local Time) from KUNV Reporting Station
Scattered Clouds Scattered Clouds  
Wind Chill: 17°   Ceiling: Unl
Heat Index: 25°   Visibility: 10mi
Dew Point: 12°   Wind: 7mph
Humidity: 59%   Direction: 270°W
Pressure: 30.22"   Gusts: NA
Location:  40.8°N, 77.86°W
Report Text: KUNV 282253Z 27006KT 10SM SCT037 M04/M11 A3022
Loading
Personal Weather Stations






























Interactive Weather Map New forecast layout! Learn more

10-Day Weather Forecast

Advertisements
Track Severe Weather on mobile